Time;durP1;ratioP1;P1;durP2;ratioP2;P2;SDS_P1;SDS_P2;PMS_P1;PMS_P2;Temp;Humidity;BMP_temperature;BMP_pressure;BME280_temperature;BME280_humidity;BME280_pressure;Samples;Min_cycle;Max_cycle;Signal;HPM_P1;HPM_P2
2022/07/15 00:00:11;;;;;;;6.07;1.92;;;13.90;99.90;;;;;;5071114;28;20097;-51
2022/07/15 00:02:38;;;;;;;4.07;1.70;;;13.90;99.90;;;;;;5071477;28;20035;-51
2022/07/15 00:05:05;;;;;;;9.00;1.90;;;13.90;99.90;;;;;;5070966;28;20051;-53
2022/07/15 00:07:31;;;;;;;5.90;1.98;;;13.90;99.90;;;;;;5071171;28;20043;-53
2022/07/15 00:10:15;;;;;;;7.65;1.77;;;13.90;99.90;;;;;;5071327;28;20033;-52
2022/07/15 00:12:42;;;;;;;9.25;2.05;;;13.80;99.90;;;;;;5070153;28;20052;-50
2022/07/15 00:15:09;;;;;;;5.53;2.17;;;13.90;99.90;;;;;;5071050;28;20081;-49
2022/07/15 00:17:34;;;;;;;3.90;1.33;;;13.90;99.90;;;;;;5071064;28;20492;-52
2022/07/15 00:20:01;;;;;;;7.07;1.90;;;13.90;99.90;;;;;;5071338;28;20120;-53
2022/07/15 00:22:26;;;;;;;7.63;1.70;;;14.00;99.90;;;;;;5071018;28;20040;-53
2022/07/15 00:24:52;;;;;;;6.80;1.95;;;14.10;99.90;;;;;;5070845;28;20032;-51
2022/07/15 00:27:18;;;;;;;6.43;1.90;;;14.10;99.90;;;;;;5070554;28;20129;-50
2022/07/15 00:29:44;;;;;;;7.00;1.90;;;14.20;99.90;;;;;;5070929;28;20087;-50
2022/07/15 00:32:09;;;;;;;8.75;1.90;;;14.20;99.90;;;;;;5071004;28;20076;-53
2022/07/15 00:34:35;;;;;;;7.60;1.88;;;14.40;99.90;;;;;;5070910;28;20119;-52
2022/07/15 00:37:01;;;;;;;6.10;1.95;;;14.30;99.90;;;;;;5070937;28;20037;-52
2022/07/15 00:39:27;;;;;;;7.13;1.83;;;14.40;99.90;;;;;;5070929;28;20380;-53
2022/07/15 00:41:52;;;;;;;6.30;2.10;;;14.40;99.90;;;;;;5071059;28;20032;-51
2022/07/15 00:44:18;;;;;;;7.97;1.60;;;14.40;99.90;;;;;;5071117;28;20043;-52
2022/07/15 00:46:44;;;;;;;6.90;1.88;;;14.40;99.90;;;;;;5074782;28;20402;-52
2022/07/15 00:49:10;;;;;;;6.50;1.70;;;14.50;99.90;;;;;;5075033;28;20068;-53
2022/07/15 00:51:40;;;;;;;8.55;2.05;;;14.50;99.90;;;;;;5074474;28;20032;-53
2022/07/15 00:54:09;;;;;;;6.55;1.65;;;14.60;99.90;;;;;;5075031;28;20037;-53
2022/07/15 00:56:40;;;;;;;6.47;2.13;;;14.50;99.90;;;;;;5074484;28;20071;-52
2022/07/15 00:59:06;;;;;;;7.07;1.55;;;14.60;99.90;;;;;;5074636;28;20131;-52
2022/07/15 01:01:35;;;;;;;7.47;1.92;;;14.70;99.90;;;;;;5074667;28;20044;-51
2022/07/15 01:04:03;;;;;;;9.85;1.90;;;14.70;99.90;;;;;;5074243;28;20058;-54
2022/07/15 01:06:29;;;;;;;5.05;1.80;;;14.60;99.90;;;;;;5056475;28;20397;-50
2022/07/15 01:08:55;;;;;;;6.00;1.80;;;14.50;99.90;;;;;;5074741;28;20093;-52
2022/07/15 01:11:20;;;;;;;7.97;2.00;;;14.50;99.90;;;;;;5074652;28;20413;-50
2022/07/15 01:13:46;;;;;;;9.40;2.55;;;14.50;99.90;;;;;;5074642;28;20029;-53
2022/07/15 01:16:12;;;;;;;7.07;1.80;;;14.50;99.90;;;;;;5056577;28;20066;-50
2022/07/15 01:18:38;;;;;;;7.88;2.30;;;14.50;99.90;;;;;;5074521;28;20943;-51
2022/07/15 01:21:03;;;;;;;8.45;1.73;;;14.50;99.90;;;;;;5074569;28;20072;-51
2022/07/15 01:23:29;;;;;;;8.55;1.83;;;14.50;99.90;;;;;;5073994;28;20051;-51
2022/07/15 01:25:55;;;;;;;4.82;1.63;;;14.50;99.90;;;;;;5074435;28;20439;-52
2022/07/15 01:28:21;;;;;;;7.38;1.88;;;14.60;99.90;;;;;;5056181;28;20040;-52
2022/07/15 01:30:47;;;;;;;4.85;1.60;;;14.60;99.90;;;;;;5074216;28;20033;-52
2022/07/15 01:33:13;;;;;;;7.05;1.90;;;14.60;99.90;;;;;;5074150;28;20024;-52
2022/07/15 01:35:39;;;;;;;4.88;1.83;;;14.50;99.90;;;;;;5073805;28;20084;-51
2022/07/15 01:38:05;;;;;;;7.95;2.00;;;14.60;99.90;;;;;;5074264;28;20064;-49
2022/07/15 01:40:31;;;;;;;6.22;1.67;;;14.50;99.90;;;;;;5074352;28;20097;-51
2022/07/15 01:42:56;;;;;;;8.35;1.85;;;14.50;99.90;;;;;;5056332;28;20480;-51
2022/07/15 01:45:22;;;;;;;6.97;1.60;;;14.50;99.90;;;;;;5073822;28;20044;-51
2022/07/15 01:47:49;;;;;;;7.07;1.42;;;14.50;99.90;;;;;;5073790;28;20040;-52
2022/07/15 01:50:16;;;;;;;5.80;1.70;;;14.60;99.90;;;;;;5073773;28;20079;-52
2022/07/15 01:52:42;;;;;;;5.93;1.55;;;14.60;99.90;;;;;;5073695;28;20412;-52
2022/07/15 01:55:09;;;;;;;7.05;1.63;;;14.50;99.90;;;;;;5073491;28;20439;-50
2022/07/15 01:57:35;;;;;;;9.38;2.08;;;14.60;99.90;;;;;;5055299;28;20064;-52
2022/07/15 02:00:00;;;;;;;6.80;1.65;;;14.70;99.90;;;;;;5073900;28;20040;-51
2022/07/15 02:02:26;;;;;;;9.98;2.30;;;14.60;99.90;;;;;;5055779;28;20048;-52
2022/07/15 02:04:52;;;;;;;7.43;2.30;;;14.60;99.90;;;;;;5073802;28;20040;-51
2022/07/15 02:07:18;;;;;;;8.23;1.85;;;14.60;99.90;;;;;;5055486;28;20139;-53
2022/07/15 02:09:44;;;;;;;8.77;2.03;;;14.60;99.90;;;;;;5073344;28;20067;-50
2022/07/15 02:12:09;;;;;;;8.48;2.00;;;14.60;99.90;;;;;;5073193;28;20131;-53
2022/07/15 02:14:35;;;;;;;8.23;1.60;;;14.60;99.90;;;;;;5073273;28;20040;-49
2022/07/15 02:17:02;;;;;;;6.95;1.95;;;14.60;99.90;;;;;;5073423;28;20037;-53
2022/07/15 02:19:28;;;;;;;7.35;2.00;;;14.50;99.90;;;;;;5073573;28;20028;-53
2022/07/15 02:21:55;;;;;;;6.47;1.70;;;14.50;99.90;;;;;;5073350;28;20040;-51
2022/07/15 02:24:21;;;;;;;6.97;1.70;;;14.50;99.90;;;;;;5072609;28;20486;-51
2022/07/15 02:26:48;;;;;;;8.07;1.65;;;14.40;99.90;;;;;;5073068;28;20037;-52
2022/07/15 02:29:15;;;;;;;6.38;1.92;;;14.40;99.90;;;;;;5073329;28;20085;-52
2022/07/15 02:31:41;;;;;;;5.50;1.58;;;14.30;99.90;;;;;;5072875;28;20052;-49
2022/07/15 02:34:08;;;;;;;8.88;1.60;;;14.20;99.90;;;;;;5072518;28;20060;-51
2022/07/15 02:36:35;;;;;;;8.07;2.20;;;14.10;99.90;;;;;;5073058;28;20033;-50
2022/07/15 02:39:02;;;;;;;7.07;1.90;;;14.20;99.90;;;;;;5072883;28;20089;-52
2022/07/15 02:41:28;;;;;;;8.77;2.10;;;14.10;99.90;;;;;;5072832;28;20040;-52
2022/07/15 02:43:55;;;;;;;6.13;1.90;;;14.10;99.90;;;;;;5054812;28;20139;-51
2022/07/15 02:46:21;;;;;;;6.35;2.00;;;14.10;99.90;;;;;;5072705;28;20044;-50
2022/07/15 02:48:47;;;;;;;6.10;1.73;;;13.90;99.90;;;;;;5072847;28;20047;-51
2022/07/15 02:51:13;;;;;;;8.07;2.05;;;13.90;99.90;;;;;;5054567;28;20032;-51
2022/07/15 02:53:39;;;;;;;6.93;2.28;;;13.90;99.90;;;;;;5072979;28;20044;-53
2022/07/15 02:56:06;;;;;;;5.22;1.48;;;13.80;99.90;;;;;;5072582;28;20040;-50
2022/07/15 02:58:31;;;;;;;6.95;1.80;;;13.80;99.90;;;;;;5054398;28;20056;-51
2022/07/15 03:00:59;;;;;;;7.32;1.90;;;13.80;99.90;;;;;;5072202;28;20357;-52
2022/07/15 03:03:27;;;;;;;7.20;2.00;;;13.80;99.90;;;;;;5072689;28;20463;-52
2022/07/15 03:05:57;;;;;;;10.52;2.20;;;13.80;99.90;;;;;;5072289;28;20547;-53
2022/07/15 03:08:23;;;;;;;8.43;2.05;;;13.80;99.90;;;;;;5070178;28;20048;-53
2022/07/15 03:10:48;;;;;;;7.47;1.73;;;13.70;99.90;;;;;;5072304;28;20070;-51
2022/07/15 03:13:14;;;;;;;7.57;1.95;;;13.70;99.90;;;;;;5072454;28;20025;-53
2022/07/15 03:15:40;;;;;;;5.38;1.58;;;13.70;99.90;;;;;;5071818;28;20166;-52
2022/07/15 03:18:05;;;;;;;9.57;1.75;;;13.70;99.90;;;;;;5071789;28;20049;-52
2022/07/15 03:20:31;;;;;;;8.07;1.88;;;13.60;99.90;;;;;;5070297;28;20113;-53
2022/07/15 03:22:57;;;;;;;7.15;1.60;;;13.50;99.90;;;;;;5072029;28;20044;-51
2022/07/15 03:25:23;;;;;;;7.45;2.05;;;13.50;99.90;;;;;;5071905;28;20040;-52
2022/07/15 03:27:49;;;;;;;5.93;1.80;;;13.50;99.90;;;;;;5072087;28;20033;-52
2022/07/15 03:30:14;;;;;;;7.65;1.80;;;13.50;99.90;;;;;;5072185;28;20048;-53
2022/07/15 03:32:40;;;;;;;7.30;2.10;;;13.60;99.90;;;;;;5071853;28;20076;-50
2022/07/15 03:35:06;;;;;;;8.70;1.80;;;13.50;99.90;;;;;;5070949;28;20618;-51
2022/07/15 03:37:32;;;;;;;9.10;2.20;;;13.50;99.90;;;;;;5071907;28;20031;-52
2022/07/15 03:39:58;;;;;;;8.85;1.83;;;13.40;99.90;;;;;;5071383;28;20044;-53
2022/07/15 03:42:23;;;;;;;7.93;2.17;;;13.30;99.90;;;;;;5053970;28;20044;-52
2022/07/15 03:44:50;;;;;;;8.50;2.20;;;13.30;99.90;;;;;;5071518;28;20044;-52
2022/07/15 03:47:15;;;;;;;6.40;1.70;;;13.30;99.90;;;;;;5071862;28;20062;-53
2022/07/15 03:49:41;;;;;;;7.40;2.00;;;13.20;99.90;;;;;;5071509;28;20484;-50
2022/07/15 03:52:07;;;;;;;8.20;2.25;;;13.20;99.90;;;;;;5071513;28;20430;-52
2022/07/15 03:54:33;;;;;;;6.55;1.92;;;13.10;99.90;;;;;;5071390;28;20029;-53
2022/07/15 03:56:59;;;;;;;9.25;2.15;;;13.10;99.90;;;;;;5071100;28;20436;-51
2022/07/15 03:59:25;;;;;;;9.05;2.33;;;13.10;99.90;;;;;;5070933;28;20059;-52
2022/07/15 04:01:52;;;;;;;8.77;2.03;;;13.10;99.90;;;;;;5071023;28;20036;-52
2022/07/15 04:04:18;;;;;;;9.40;2.00;;;13.20;99.90;;;;;;5052828;28;20048;-51
2022/07/15 04:06:44;;;;;;;7.80;1.90;;;13.20;99.90;;;;;;5071289;28;20547;-50
2022/07/15 04:09:10;;;;;;;7.18;1.70;;;13.20;99.90;;;;;;5053201;28;20399;-52
2022/07/15 04:11:41;;;;;;;6.50;1.80;;;13.30;99.90;;;;;;5071245;28;20039;-52
2022/07/15 04:14:09;;;;;;;8.93;1.83;;;13.20;99.90;;;;;;5053028;28;20028;-49
2022/07/15 04:16:34;;;;;;;6.93;1.90;;;13.30;99.90;;;;;;5053045;28;20634;-50
2022/07/15 04:19:00;;;;;;;6.68;1.90;;;13.30;99.90;;;;;;5071053;28;20109;-52
2022/07/15 04:21:26;;;;;;;10.75;2.25;;;13.40;99.90;;;;;;5070741;28;20032;-52
2022/07/15 04:23:52;;;;;;;6.45;1.50;;;13.40;99.90;;;;;;5052688;28;20079;-52
2022/07/15 04:26:17;;;;;;;7.35;1.50;;;13.50;99.90;;;;;;5071025;28;20036;-51
2022/07/15 04:28:43;;;;;;;5.03;1.50;;;13.40;99.90;;;;;;5071125;28;20501;-50
2022/07/15 04:31:08;;;;;;;7.05;1.63;;;13.50;99.90;;;;;;5070883;28;20036;-52
2022/07/15 04:33:34;;;;;;;5.90;1.77;;;13.60;99.90;;;;;;5070741;28;20391;-52
2022/07/15 04:36:00;;;;;;;6.93;1.63;;;13.60;99.90;;;;;;5070596;28;20162;-49
2022/07/15 04:38:25;;;;;;;5.63;1.63;;;13.60;99.90;;;;;;5070721;28;20032;-53
2022/07/15 04:40:51;;;;;;;6.28;1.48;;;13.60;99.90;;;;;;5070643;28;20055;-50
2022/07/15 04:43:17;;;;;;;6.20;1.45;;;13.60;99.90;;;;;;5036045;28;20114;-51
2022/07/15 04:45:43;;;;;;;9.25;1.42;;;13.70;99.90;;;;;;5070818;28;20387;-52
2022/07/15 04:50:53;;;;;;;6.53;1.73;;;13.70;99.90;;;;;;5069865;28;20174;-51
2022/07/15 04:53:20;;;;;;;4.45;1.55;;;13.70;99.90;;;;;;5070592;28;20127;-53
2022/07/15 04:55:47;;;;;;;8.35;1.65;;;13.70;99.90;;;;;;5070733;28;20491;-50
2022/07/15 04:58:14;;;;;;;5.15;1.80;;;13.70;99.90;;;;;;5052798;28;20052;-53
2022/07/15 05:00:41;;;;;;;9.38;1.83;;;13.70;99.90;;;;;;5052740;28;20037;-51
2022/07/15 05:03:07;;;;;;;5.97;1.60;;;13.80;99.90;;;;;;5070737;28;20048;-49
2022/07/15 05:05:33;;;;;;;7.63;1.45;;;13.80;99.90;;;;;;5070376;28;20032;-50
2022/07/15 05:07:59;;;;;;;5.05;1.40;;;13.80;99.90;;;;;;5052486;28;20369;-50
2022/07/15 05:10:24;;;;;;;8.38;1.60;;;13.90;99.90;;;;;;5070413;28;20044;-50
2022/07/15 05:12:50;;;;;;;5.20;1.38;;;13.90;99.90;;;;;;5070456;28;20048;-51
2022/07/15 05:15:16;;;;;;;5.28;1.38;;;13.90;99.90;;;;;;5070660;28;20451;-52
2022/07/15 05:17:44;;;;;;;5.05;1.30;;;14.00;99.90;;;;;;5070502;28;20113;-51
2022/07/15 05:20:10;;;;;;;3.38;1.02;;;14.10;99.90;;;;;;5071107;28;20151;-53
2022/07/15 05:22:36;;;;;;;5.07;1.15;;;14.10;99.90;;;;;;5052427;28;20411;-52
2022/07/15 05:25:02;;;;;;;4.45;0.80;;;14.20;99.90;;;;;;5070481;28;20047;-48
2022/07/15 05:27:28;;;;;;;5.97;1.00;;;14.20;99.90;;;;;;5070444;28;20033;-51
2022/07/15 05:29:54;;;;;;;5.70;1.10;;;14.30;99.90;;;;;;5070444;28;20484;-50
2022/07/15 05:32:19;;;;;;;5.82;1.10;;;14.30;99.90;;;;;;5072987;28;20144;-51
2022/07/15 05:34:46;;;;;;;4.47;1.00;;;14.30;99.90;;;;;;5073941;28;20072;-53
2022/07/15 05:37:12;;;;;;;5.85;1.00;;;14.40;99.90;;;;;;5074038;28;20115;-52
2022/07/15 05:39:53;;;;;;;4.95;0.80;;;14.50;99.90;;;;;;5056182;28;20556;-52
2022/07/15 05:42:19;;;;;;;3.65;0.70;;;14.50;99.90;;;;;;5040016;28;20044;-51
2022/07/15 05:44:45;;;;;;;3.88;0.80;;;14.60;99.90;;;;;;5073974;28;20111;-51
2022/07/15 05:47:11;;;;;;;3.22;0.70;;;14.70;99.90;;;;;;5073968;28;20136;-51
2022/07/15 05:49:36;;;;;;;5.43;0.80;;;14.70;99.90;;;;;;5056237;28;20036;-52
2022/07/15 05:52:02;;;;;;;4.55;0.80;;;14.80;99.90;;;;;;5074038;28;20036;-51
2022/07/15 05:54:28;;;;;;;3.45;0.60;;;14.80;99.90;;;;;;5073823;28;20516;-52
2022/07/15 05:56:53;;;;;;;3.47;0.57;;;14.80;99.90;;;;;;5073688;28;20083;-53
2022/07/15 05:59:19;;;;;;;4.15;0.75;;;14.90;99.90;;;;;;5073260;28;20060;-51
2022/07/15 06:01:45;;;;;;;3.58;0.80;;;15.00;99.90;;;;;;5073302;28;20043;-51
2022/07/15 06:04:10;;;;;;;2.53;0.82;;;15.00;99.90;;;;;;5073532;28;20040;-51
2022/07/15 06:06:36;;;;;;;3.30;0.50;;;15.10;99.90;;;;;;5073880;28;20040;-50
2022/07/15 06:09:02;;;;;;;2.35;0.63;;;15.10;99.90;;;;;;5073761;28;20032;-52
2022/07/15 06:11:28;;;;;;;2.88;0.60;;;15.20;99.90;;;;;;5073394;28;20549;-53
2022/07/15 06:13:53;;;;;;;3.17;0.50;;;15.30;99.90;;;;;;5073162;28;20108;-50
2022/07/15 06:16:19;;;;;;;3.40;0.70;;;15.30;99.90;;;;;;5074796;28;20391;-53
2022/07/15 06:18:44;;;;;;;3.50;0.70;;;15.30;99.90;;;;;;5074573;28;20041;-53
2022/07/15 06:21:11;;;;;;;2.95;0.38;;;15.40;99.90;;;;;;5076673;28;20292;-52
2022/07/15 06:23:37;;;;;;;2.17;0.40;;;15.50;99.90;;;;;;5072492;28;20036;-50
2022/07/15 06:26:03;;;;;;;2.72;0.40;;;15.50;99.90;;;;;;5072400;28;20032;-51
2022/07/15 06:28:29;;;;;;;0.88;0.20;;;15.50;99.90;;;;;;5072324;28;20036;-50
2022/07/15 06:30:54;;;;;;;4.18;0.60;;;15.70;99.90;;;;;;5072300;28;20076;-52
2022/07/15 06:33:21;;;;;;;2.53;0.40;;;15.70;99.90;;;;;;5072104;28;20064;-52
2022/07/15 06:35:46;;;;;;;2.78;0.40;;;15.70;99.90;;;;;;5071559;28;20116;-51
2022/07/15 06:38:12;;;;;;;2.13;0.47;;;15.80;99.90;;;;;;5072114;28;20124;-51
2022/07/15 06:40:38;;;;;;;2.15;0.40;;;15.80;99.90;;;;;;5072041;28;20416;-50
2022/07/15 06:43:03;;;;;;;1.80;0.40;;;15.90;99.90;;;;;;5071211;28;20090;-52
2022/07/15 06:45:29;;;;;;;1.92;0.40;;;15.90;99.90;;;;;;5072730;28;20044;-50
2022/07/15 06:47:55;;;;;;;3.30;0.40;;;15.90;99.90;;;;;;5054456;28;20419;-50
2022/07/15 06:50:24;;;;;;;3.35;0.50;;;16.00;99.90;;;;;;5072858;28;20060;-52
2022/07/15 06:52:49;;;;;;;1.92;0.40;;;16.20;99.90;;;;;;5072443;28;20086;-50
2022/07/15 06:55:16;;;;;;;1.30;0.30;;;16.10;99.90;;;;;;5070168;28;20028;-53
2022/07/15 06:57:42;;;;;;;0.68;0.20;;;16.20;99.90;;;;;;5070586;28;20049;-52
2022/07/15 07:00:10;;;;;;;2.20;0.28;;;16.20;99.90;;;;;;5059670;28;20141;-52
2022/07/15 07:02:36;;;;;;;2.33;0.30;;;16.20;99.90;;;;;;5060410;28;20056;-49
2022/07/15 07:05:01;;;;;;;3.10;0.68;;;16.30;99.90;;;;;;5063324;28;20087;-53
2022/07/15 07:07:27;;;;;;;1.38;0.40;;;16.30;99.90;;;;;;5064607;28;20068;-49
2022/07/15 07:09:53;;;;;;;1.90;0.30;;;16.30;99.90;;;;;;5064592;28;20044;-51
2022/07/15 07:12:19;;;;;;;2.60;0.43;;;16.30;99.90;;;;;;5062821;28;20045;-52
2022/07/15 07:14:44;;;;;;;2.20;0.32;;;16.40;99.90;;;;;;5064428;28;20044;-53
2022/07/15 07:17:10;;;;;;;1.48;0.40;;;16.50;99.90;;;;;;5045598;28;20040;-53
2022/07/15 07:19:36;;;;;;;0.90;0.30;;;16.50;99.90;;;;;;5061068;28;20373;-52
2022/07/15 07:22:02;;;;;;;3.03;0.38;;;16.50;99.90;;;;;;5062412;28;20032;-53
2022/07/15 07:24:27;;;;;;;2.15;0.40;;;16.50;99.90;;;;;;5062392;28;20475;-50
2022/07/15 07:26:53;;;;;;;1.85;0.40;;;16.60;99.90;;;;;;5063527;28;20036;-50
2022/07/15 07:29:22;;;;;;;2.28;0.40;;;16.70;99.90;;;;;;5063094;28;20028;-52
2022/07/15 07:31:49;;;;;;;3.08;0.40;;;16.70;99.90;;;;;;5062759;28;20102;-52
2022/07/15 07:34:15;;;;;;;2.42;0.30;;;16.80;99.90;;;;;;5059418;28;20037;-54
2022/07/15 07:36:41;;;;;;;2.13;0.30;;;16.80;99.90;;;;;;5061105;28;20098;-54
2022/07/15 07:39:07;;;;;;;0.75;0.20;;;17.00;99.90;;;;;;5062827;28;20032;-52
2022/07/15 07:41:32;;;;;;;1.85;0.50;;;17.00;99.90;;;;;;5060728;28;20040;-52
2022/07/15 07:43:58;;;;;;;1.58;0.30;;;17.00;99.90;;;;;;5058253;28;20070;-51
2022/07/15 07:46:24;;;;;;;3.92;0.40;;;17.10;99.90;;;;;;5059664;28;20048;-53
2022/07/15 07:48:49;;;;;;;2.28;0.30;;;17.10;99.90;;;;;;5043221;28;20036;-50
2022/07/15 07:51:17;;;;;;;2.30;0.30;;;17.10;99.90;;;;;;5059043;28;20037;-49
2022/07/15 07:53:43;;;;;;;1.75;0.30;;;17.10;99.90;;;;;;5059748;28;20098;-49
2022/07/15 07:56:09;;;;;;;2.15;0.50;;;17.20;99.90;;;;;;5062888;28;20028;-50
2022/07/15 07:58:35;;;;;;;0.80;0.20;;;17.30;99.90;;;;;;5060451;28;20052;-51
2022/07/15 08:01:01;;;;;;;1.95;0.30;;;17.30;99.90;;;;;;5062777;28;20382;-50
2022/07/15 08:03:29;;;;;;;1.75;0.38;;;17.50;99.90;;;;;;5063396;28;20713;-52
2022/07/15 08:05:55;;;;;;;2.35;0.40;;;17.50;99.90;;;;;;5061994;28;20506;-49
2022/07/15 08:08:22;;;;;;;2.08;0.45;;;17.40;99.90;;;;;;5045590;28;20028;-52
2022/07/15 08:10:54;;;;;;;1.70;0.30;;;17.60;99.90;;;;;;5044496;28;20044;-51
2022/07/15 08:13:22;;;;;;;2.45;0.35;;;17.60;99.90;;;;;;5062679;28;20039;-53
2022/07/15 08:15:49;;;;;;;1.55;0.20;;;17.70;99.90;;;;;;5063341;28;20051;-49
2022/07/15 08:18:15;;;;;;;0.88;0.30;;;17.80;99.90;;;;;;5063115;28;20074;-53
2022/07/15 08:20:41;;;;;;;2.72;0.35;;;17.90;99.90;;;;;;5062686;28;20109;-50
2022/07/15 08:23:07;;;;;;;0.85;0.35;;;18.20;99.90;;;;;;5062876;28;20489;-50
2022/07/15 08:25:37;;;;;;;1.20;0.13;;;18.50;99.90;;;;;;5047418;28;20032;-51
2022/07/15 08:28:04;;;;;;;2.40;0.40;;;18.60;99.90;;;;;;5061079;28;20036;-53
2022/07/15 08:30:30;;;;;;;1.58;0.35;;;18.70;99.90;;;;;;5062935;28;20071;-51
2022/07/15 08:32:57;;;;;;;1.10;0.25;;;18.40;99.90;;;;;;5041214;28;20320;-57
2022/07/15 08:35:25;;;;;;;1.55;0.30;;;18.40;99.90;;;;;;5059576;28;20036;-56
2022/07/15 08:37:52;;;;;;;1.42;0.47;;;18.20;99.90;;;;;;5062505;28;20111;-54
2022/07/15 08:40:18;;;;;;;1.67;0.30;;;18.20;99.90;;;;;;5044222;28;20036;-50
2022/07/15 08:42:46;;;;;;;1.42;0.30;;;18.10;99.90;;;;;;5045127;28;20567;-52
2022/07/15 08:45:13;;;;;;;0.55;0.20;;;18.10;99.90;;;;;;5062791;28;20349;-52
2022/07/15 08:47:42;;;;;;;2.50;0.25;;;18.20;99.90;;;;;;5062543;28;20056;-50
2022/07/15 08:50:11;;;;;;;0.80;0.28;;;18.20;99.90;;;;;;5062520;28;20457;-49
2022/07/15 08:52:37;;;;;;;1.65;0.38;;;18.30;99.90;;;;;;5059845;28;20139;-53
2022/07/15 08:55:04;;;;;;;0.82;0.20;;;18.50;99.90;;;;;;5062825;28;20041;-52
2022/07/15 08:57:29;;;;;;;1.65;0.30;;;18.40;99.90;;;;;;5063189;28;20153;-52
2022/07/15 08:59:55;;;;;;;1.25;0.20;;;18.60;97.70;;;;;;5063764;28;20111;-52
2022/07/15 09:02:22;;;;;;;2.88;0.38;;;18.70;98.90;;;;;;5063554;28;20052;-50
2022/07/15 09:05:21;;;;;;;0.35;0.20;;;19.10;99.10;;;;;;5064792;28;20127;-52
2022/07/15 09:08:03;;;;;;;0.55;0.10;;;19.10;97.20;;;;;;5067420;28;20078;-52
2022/07/15 09:10:57;;;;;;;0.40;0.10;;;19.30;98.70;;;;;;5067317;28;20058;-51
2022/07/15 09:13:39;;;;;;;2.28;0.52;;;19.30;98.40;;;;;;5069176;28;20047;-52
2022/07/15 09:16:19;;;;;;;1.38;0.30;;;19.60;98.90;;;;;;5069322;28;20043;-51
2022/07/15 09:18:45;;;;;;;1.75;0.50;;;19.60;98.70;;;;;;5068222;28;20129;-53
2022/07/15 09:21:19;;;;;;;2.15;0.30;;;19.40;98.40;;;;;;5069009;28;20040;-53
2022/07/15 09:23:45;;;;;;;0.60;0.20;;;19.30;98.60;;;;;;5065565;28;20040;-52
2022/07/15 09:26:40;;;;;;;1.90;0.22;;;19.10;98.90;;;;;;5066098;28;20044;-52
2022/07/15 09:33:34;;;;;;;1.83;0.35;;;18.80;98.20;;;;;;5052216;28;20204;-50
2022/07/15 09:35:01;;;;;;;4.25;0.35;;;19.00;99.10;;;;;;5064113;28;20045;-52
2022/07/15 09:37:27;;;;;;;2.03;0.30;;;19.30;99.20;;;;;;5051344;28;20121;-49
2022/07/15 09:39:57;;;;;;;2.25;0.30;;;19.70;98.90;;;;;;5069049;28;20380;-52
2022/07/15 09:42:23;;;;;;;0.80;0.20;;;20.10;98.50;;;;;;5069182;28;20025;-51
2022/07/15 09:44:50;;;;;;;1.75;0.30;;;20.30;97.90;;;;;;5071074;28;20040;-48
2022/07/15 09:47:18;;;;;;;3.08;0.38;;;20.00;98.10;;;;;;5069547;28;20033;-52
2022/07/15 09:49:45;;;;;;;1.42;0.25;;;19.90;98.40;;;;;;5071238;28;20544;-49
2022/07/15 09:52:14;;;;;;;2.22;0.30;;;19.70;98.30;;;;;;5071651;28;20046;-56
2022/07/15 09:54:46;;;;;;;2.40;0.50;;;19.90;99.10;;;;;;5072115;28;20121;-51
2022/07/15 09:57:17;;;;;;;1.10;0.30;;;20.40;98.90;;;;;;5072179;28;20036;-51
2022/07/15 09:59:44;;;;;;;3.55;0.43;;;20.80;99.20;;;;;;5071682;28;20503;-52
2022/07/15 10:02:11;;;;;;;3.65;0.30;;;20.60;99.20;;;;;;5072695;28;20079;-48
2022/07/15 10:04:37;;;;;;;6.60;0.40;;;20.10;98.30;;;;;;5074978;28;20040;-52
2022/07/15 10:07:04;;;;;;;2.35;0.40;;;19.80;98.00;;;;;;5071880;28;20040;-52
2022/07/15 10:09:35;;;;;;;7.15;1.08;;;19.80;98.70;;;;;;5071866;28;20111;-52
2022/07/15 10:12:14;;;;;;;2.25;0.40;;;19.60;98.80;;;;;;5069650;28;20119;-49
2022/07/15 10:15:04;;;;;;;1.50;0.40;;;19.60;99.50;;;;;;5070930;28;20055;-52
2022/07/15 10:17:32;;;;;;;5.60;0.52;;;19.80;99.40;;;;;;5071606;28;20119;-52
2022/07/15 10:20:14;;;;;;;1.88;0.30;;;19.70;99.50;;;;;;5069293;28;20033;-53
2022/07/15 10:22:45;;;;;;;1.65;0.28;;;19.80;98.30;;;;;;5069569;28;20122;-51
2022/07/15 10:25:31;;;;;;;1.83;0.30;;;20.20;98.90;;;;;;5071701;28;20040;-53
2022/07/15 10:28:13;;;;;;;2.65;0.30;;;20.30;98.40;;;;;;5071025;28;20040;-52
2022/07/15 10:30:42;;;;;;;2.22;0.50;;;20.30;98.70;;;;;;5069777;28;20369;-51
2022/07/15 10:33:19;;;;;;;0.95;0.43;;;20.20;98.90;;;;;;5050995;28;20122;-54
2022/07/15 10:36:02;;;;;;;1.75;0.85;;;20.00;98.00;;;;;;5067980;28;20076;-52
2022/07/15 10:38:29;;;;;;;1.92;0.40;;;19.90;98.80;;;;;;5066256;28;20036;-52
2022/07/15 10:41:01;;;;;;;1.58;0.30;;;19.80;98.40;;;;;;5070672;28;20044;-52
2022/07/15 10:43:44;;;;;;;0.88;0.28;;;20.00;98.50;;;;;;5071388;28;20094;-52
2022/07/15 10:46:16;;;;;;;2.35;0.40;;;20.20;97.50;;;;;;5072186;28;20579;-52
2022/07/15 10:48:42;;;;;;;1.58;0.30;;;20.30;97.10;;;;;;5069595;28;20048;-53
2022/07/15 10:51:08;;;;;;;4.57;0.70;;;20.30;97.50;;;;;;5070658;28;20496;-53
2022/07/15 10:53:46;;;;;;;1.80;0.43;;;20.30;98.20;;;;;;5066190;28;20056;-54
2022/07/15 10:56:34;;;;;;;2.30;0.45;;;20.20;97.60;;;;;;5063924;28;20036;-53
2022/07/15 10:59:16;;;;;;;3.13;0.40;;;20.00;97.00;;;;;;5063555;28;20385;-55
2022/07/15 11:01:45;;;;;;;1.30;0.32;;;20.00;97.50;;;;;;5065630;28;20528;-53
2022/07/15 11:04:21;;;;;;;0.95;0.30;;;20.30;98.00;;;;;;5067589;28;20074;-53
2022/07/15 11:07:02;;;;;;;2.22;0.32;;;20.30;98.00;;;;;;5064980;28;20560;-54
2022/07/15 11:09:49;;;;;;;2.25;0.50;;;20.60;96.30;;;;;;5065704;28;20052;-54
2022/07/15 11:12:27;;;;;;;1.95;0.40;;;20.90;96.70;;;;;;5069695;28;20460;-54
2022/07/15 11:15:10;;;;;;;1.27;0.30;;;21.10;97.20;;;;;;5070614;28;20434;-54
2022/07/15 11:17:36;;;;;;;1.35;0.30;;;21.20;96.50;;;;;;5070162;28;20064;-54
2022/07/15 11:20:08;;;;;;;2.78;0.45;;;20.90;97.70;;;;;;5070488;28;20060;-53
2022/07/15 11:22:36;;;;;;;3.50;0.50;;;20.80;97.80;;;;;;5070533;28;20090;-54
2022/07/15 11:25:06;;;;;;;1.85;0.43;;;21.00;97.20;;;;;;5070416;28;20502;-52
2022/07/15 11:27:32;;;;;;;2.08;0.30;;;20.60;97.40;;;;;;5070466;28;20043;-51
2022/07/15 11:30:02;;;;;;;2.90;1.15;;;21.30;97.60;;;;;;5070408;28;20553;-53
2022/07/15 11:32:30;;;;;;;1.55;0.40;;;21.80;97.50;;;;;;5068067;28;20076;-51
2022/07/15 11:34:59;;;;;;;2.13;0.30;;;21.90;98.00;;;;;;5051964;28;20043;-51
2022/07/15 11:37:33;;;;;;;2.97;0.70;;;22.20;97.40;;;;;;5070372;28;20032;-55
2022/07/15 11:45:42;;;;;;;5.22;0.55;;;22.10;96.40;;;;;;5069802;28;20094;-54
2022/07/15 11:48:07;;;;;;;3.17;0.47;;;21.90;96.80;;;;;;5070044;28;20028;-54
2022/07/15 11:50:35;;;;;;;2.97;0.45;;;21.60;97.00;;;;;;5069530;28;20107;-52
2022/07/15 11:53:00;;;;;;;1.48;0.32;;;22.10;96.70;;;;;;5070221;28;20032;-50
2022/07/15 11:55:26;;;;;;;1.50;0.20;;;22.40;95.20;;;;;;5070370;28;20044;-55
2022/07/15 11:57:52;;;;;;;3.45;0.60;;;22.20;95.70;;;;;;5064050;28;20045;-53
2022/07/15 12:00:19;;;;;;;1.90;0.40;;;22.20;95.60;;;;;;5061616;28;20076;-49
2022/07/15 12:02:44;;;;;;;2.08;0.43;;;21.80;95.70;;;;;;5064708;28;20229;-51
2022/07/15 12:05:10;;;;;;;2.05;0.40;;;22.30;96.50;;;;;;5062191;28;20120;-49
2022/07/15 12:07:54;;;;;;;2.35;0.32;;;22.20;95.60;;;;;;5065359;28;20063;-50
2022/07/15 12:10:33;;;;;;;1.25;0.32;;;22.30;96.10;;;;;;5061563;28;20036;-52
2022/07/15 12:13:01;;;;;;;2.75;0.35;;;22.20;96.50;;;;;;5065973;28;20275;-51
2022/07/15 12:15:34;;;;;;;2.22;0.50;;;22.60;96.60;;;;;;5052657;28;20067;-52
2022/07/15 12:18:00;;;;;;;3.53;0.50;;;22.70;95.60;;;;;;5070297;28;20036;-53
2022/07/15 12:20:26;;;;;;;6.00;0.40;;;22.70;95.10;;;;;;5069992;28;20177;-51
2022/07/15 12:23:07;;;;;;;3.30;0.60;;;23.00;95.30;;;;;;5070456;28;20496;-53
2022/07/15 12:25:33;;;;;;;1.80;0.47;;;23.10;94.90;;;;;;5051809;28;20118;-52
2022/07/15 12:27:58;;;;;;;1.67;0.40;;;23.00;94.90;;;;;;5069935;28;20468;-53
2022/07/15 12:30:38;;;;;;;2.65;0.57;;;23.60;95.20;;;;;;5069820;28;20514;-53
2022/07/15 12:33:21;;;;;;;3.90;0.70;;;23.40;93.90;;;;;;5069701;28;20068;-52
2022/07/15 12:35:47;;;;;;;6.55;3.83;;;22.70;94.40;;;;;;5067795;28;20098;-50
2022/07/15 12:38:30;;;;;;;4.30;0.80;;;22.40;94.80;;;;;;5067696;28;20109;-50
2022/07/15 12:41:07;;;;;;;2.13;0.70;;;22.40;94.60;;;;;;5066343;28;20037;-53
2022/07/15 12:43:49;;;;;;;3.35;0.47;;;22.20;95.00;;;;;;5065743;28;20039;-51
2022/07/15 12:46:16;;;;;;;3.55;0.82;;;22.30;94.90;;;;;;5065024;28;20067;-52
2022/07/15 12:48:48;;;;;;;2.55;0.68;;;22.80;94.50;;;;;;5069372;28;20074;-51
2022/07/15 12:51:16;;;;;;;1.02;0.30;;;23.10;94.30;;;;;;5069693;28;20127;-52
2022/07/15 12:53:42;;;;;;;1.95;0.60;;;23.50;94.30;;;;;;5068494;28;20045;-52
2022/07/15 12:56:08;;;;;;;1.83;0.47;;;23.50;93.70;;;;;;5064817;28;20036;-51
2022/07/15 12:58:37;;;;;;;5.95;0.70;;;23.60;94.40;;;;;;5065987;28;20431;-51
2022/07/15 13:01:13;;;;;;;2.65;0.60;;;24.00;94.60;;;;;;5064102;28;20066;-53
2022/07/15 13:03:40;;;;;;;1.08;0.40;;;23.70;92.70;;;;;;5068893;28;20106;-52